createdAt,value
2023-02-18T00:02:37.824Z,97944.75
2023-02-18T00:07:40.864Z,97948.63
2023-02-18T00:12:42.726Z,97944.81
2023-02-18T00:17:44.687Z,97956.84
2023-02-18T00:22:46.898Z,97950.84
2023-02-18T00:27:48.601Z,97944.81
2023-02-18T00:32:50.352Z,97951.47
2023-02-18T00:37:53.046Z,97935.00
2023-02-18T00:42:54.890Z,97955.28
2023-02-18T00:47:56.575Z,97938.53
2023-02-18T00:52:58.315Z,97952.84
2023-02-18T00:57:59.998Z,97936.38
2023-02-18T01:03:02.083Z,97926.47
2023-02-18T01:08:04.836Z,97921.81
2023-02-18T01:13:06.568Z,97932.78
2023-02-18T01:18:09.322Z,97917.66
2023-02-18T01:23:11.575Z,97913.81
2023-02-18T01:28:14.938Z,97914.66
2023-02-18T01:33:16.652Z,97912.19
2023-02-18T01:38:18.726Z,97896.53
2023-02-18T01:43:21.517Z,97909.16
2023-02-18T01:48:25.013Z,97902.03
2023-02-18T01:53:35.792Z,97896.03
2023-02-18T01:58:38.118Z,97878.16
2023-02-18T02:03:39.815Z,97870.75
2023-02-18T02:08:41.709Z,97881.47
2023-02-18T02:13:49.372Z,97885.59
2023-02-18T02:19:08.244Z,97882.03
2023-02-18T02:24:48.007Z,97884.50
2023-02-18T02:30:01.805Z,97871.28
2023-02-18T02:35:14.905Z,97883.44
2023-02-18T02:40:54.972Z,97881.47
2023-02-18T02:46:06.525Z,97875.97
2023-02-18T02:51:37.896Z,97882.28
2023-02-18T02:56:39.581Z,97863.31
2023-02-18T03:01:54.911Z,97859.75
2023-02-18T03:07:09.745Z,97857.03
2023-02-18T03:12:25.377Z,97858.41
2023-02-18T03:17:35.620Z,97845.50
2023-02-18T03:22:43.919Z,97831.22
2023-02-18T03:28:01.462Z,97847.19
2023-02-18T03:33:07.185Z,97837.25
2023-02-18T03:38:18.638Z,97828.44
2023-02-18T03:43:20.387Z,97843.81
2023-02-18T03:48:22.219Z,97838.06
2023-02-18T03:53:27.053Z,97844.94
2023-02-18T03:58:28.718Z,97834.19
2023-02-18T04:03:30.588Z,97845.50
2023-02-18T04:08:32.347Z,97830.63
2023-02-18T04:13:34.105Z,97844.34
2023-02-18T04:18:35.840Z,97843.28
2023-02-18T04:23:37.974Z,97847.41
2023-02-18T04:28:39.717Z,97851.53
2023-02-18T04:33:41.436Z,97858.09
2023-02-18T04:38:43.369Z,97861.69
2023-02-18T04:43:45.118Z,97866.34
2023-02-18T04:48:46.857Z,97856.44
2023-02-18T04:53:48.803Z,97852.59
2023-02-18T04:58:50.717Z,97854.50
2023-02-18T05:03:52.477Z,97849.00
2023-02-18T05:08:54.144Z,97847.91
2023-02-18T05:13:55.840Z,97841.59
2023-02-18T05:18:57.690Z,97838.28
2023-02-18T05:23:59.483Z,97812.97
2023-02-18T05:29:01.289Z,97809.16
2023-02-18T05:34:03.018Z,97809.19
2023-02-18T05:39:04.788Z,97820.44
2023-02-18T05:44:25.087Z,97827.31
2023-02-18T05:49:27.662Z,97833.31
2023-02-18T05:54:29.434Z,97827.75
2023-02-18T05:59:31.656Z,97831.31
2023-02-18T06:04:33.636Z,97837.59
2023-02-18T06:09:35.507Z,97844.78
2023-02-18T06:14:38.057Z,97841.44
2023-02-18T06:19:39.904Z,97832.69
2023-02-18T06:24:41.962Z,97832.09
2023-02-18T06:29:43.992Z,97838.75
2023-02-18T06:34:45.841Z,97838.19
2023-02-18T06:39:47.599Z,97839.81
2023-02-18T06:44:49.319Z,97826.09
2023-02-18T06:49:51.116Z,97827.75
2023-02-18T06:54:53.031Z,97842.03
